Tiempo atmosférico en la estación meteorológica de Brozas , Cáceres (411 m.)



Fecha
DESCASC
Temp. máxima en grados centígrados (hora)
DESCASC
Temp. mínima en grados centígrados (hora)
DESCASC
Temp. media en grados centígrados
DESCASC
Racha de viento máxima en m/sg (hora)
DESCASC
Velocidad máxima media en intervalos de 10 minutos(hora)
DESCASC
Precipitaciones diarias en mm
DESCASC
Precipitaciones de 00:00 a 06:00 en mm
DESCASC
Precipitaciones de 06:00 a 12:00 en mm
DESCASC
Precipitaciones de 12:00 a 18:00 en mm
DESCASC
Precipitaciones de 18:00 a 24:00 en mm
DESCASC
25-04-2019 15 (18:20) 6.7 (07:50) 10.8 15.83 (18:10) 11.67 (18:40) 3.4 0 1 2.4 0
24-04-2019 16.7 (14:40) 5.3 (01:40) 11 17.5 (14:50) 13.33 (14:50) 21.6 3.6 12 2 4
23-04-2019 13.4 (00:00) 5.1 (23:40) 9.2 15 (17:10) 10.83 (13:40) 6.2 5.4 0.2 0.6 0
22-04-2019 21.1 (14:50) 8.7 (00:00) 14.9 11.11 (18:20) 8.61 (19:20) 0 0 0 0 0
21-04-2019 20.7 (18:10) 8.2 (00:00) 14.5 10.56 (05:20) 6.67 (05:20) 0 0 0 0 0
20-04-2019 23.6 (16:40) 9.1 (00:00) 16.4 12.5 (14:10) 7.5 (22:20) 2 1.4 0.6 0 0
19-04-2019 17.3 (16:50) 8.6 (00:00) 12.9 11.67 (18:20) 8.33 (18:30) 1 0 0.4 0.2 0.4
18-04-2019 18.1 (14:40) 9.4 (00:00) 13.8 8.61 (17:50) 6.39 (17:50) 0 0 0 0 0
17-04-2019 19.5 (15:30) 9.6 (00:00) 14.6 16.11 (15:40) 11.39 (15:40) 6.8 0 0 2.2 4.6
16-04-2019 22.4 (17:50) 7.2 (00:00) 14.8 11.94 (17:20) 6.67 (17:20) 0 0 0 0 0
15-04-2019 19.6 (14:00) 10 (00:00) 14.8 16.39 (14:10) 12.5 (14:20) 0.8 0 0 0.8 0
14-04-2019 23.9 (17:50) 11.7 (00:00) 17.8 7.5 (16:40) 5 (00:10) 0 0 0 0 0
13-04-2019 22.9 (17:10) 9.7 (00:00) 16.3 10.56 (17:30) 7.78 (17:30) 0 0 0 0 0
12-04-2019 20.7 (18:20) 6.6 (00:00) 13.7 8.61 (14:10) 5 (05:50) 0 0 0 0 0
11-04-2019 19.2 (17:10) 4.3 (00:00) 11.8 8.33 (17:10) 6.67 (04:00) 0 0 0 0 0
10-04-2019 16.8 (16:20) 5.3 (00:00) 11 13.61 (17:10) 10 (19:20) 0 0 0 0 0
09-04-2019 16 (16:10) 6.6 (00:00) 11.3 13.89 (16:00) 10.28 (16:00) 1.4 0 0.4 0.8 0.2
08-04-2019 16.4 (15:20) 7.5 (00:00) 11.9 15.56 (17:30) 11.94 (17:30) 3 3 0 0 0
07-04-2019 11.9 (15:20) 6.3 (00:00) 9.1 9.44 (01:50) 7.22 (01:50) 2.4 0 0 0.6 1.8
06-04-2019 10.6 (18:20) 4.4 (00:00) 7.5 16.39 (14:50) 11.39 (14:40) 4.8 0.2 0.8 3.8 0
05-04-2019 11.5 (15:10) 3.9 (00:00) 7.7 15 (17:10) 10.83 (09:20) 3.6 2 1.4 0.2 0
04-04-2019 15.8 (16:50) 1.4 (00:00) 8.6 11.67 (20:30) 9.17 (20:20) 0.4 0 0 0 0.4
03-04-2019 16.7 (17:30) 4.1 (00:00) 10.4 14.72 (15:00) 8.61 (14:30) 0 0 0 0 0
02-04-2019 21.1 (17:20) 7.6 (00:00) 14.4 9.72 (20:00) 7.5 (20:10) 0 0 0 0 0
01-04-2019 17.8 (17:10) 9.9 (00:00) 13.8 6.11 (03:50) 3.89 (08:20) 1.8 0 1 0.8 0
31-03-2019 20.6 (15:20) 10.7 (00:00) 15.7 10.28 (10:10) 6.39 (10:00) 0 0 0 0 0
30-03-2019 21.2 (16:50) 7.8 (00:00) 14.5 11.11 (16:00) 7.22 (10:10) 0 0 0 0 0
29-03-2019 20.5 (16:00) 7.3 (00:00) 13.9 9.72 (15:50) 6.11 (16:10) 0 0 0 0 0
28-03-2019 21.6 (15:50) 6.1 (00:00) 13.9 9.17 (13:50) 5.83 (09:20) 0 0 0 0 0
27-03-2019 20.4 (15:40) 8.6 (00:00) 14.5 14.17 (09:00) 10.28 (07:30) 0 0 0 0 0

Gráficas

Temp. máximas Temp. mínimas Temp. medias Precipitaciones Rachas de viento máximas Velocidades máximas media en intervalos de 10 minutos

Datos horarios

Fecha y hora oficial Temperatura (ºC) Velocidad del viento (km/h) Dirección del viento Racha (km/h) Dirección de racha Precipitación (mm) Presión (hPa) Tendencia (hPa) Humedad (%)
2019-04-25 23:00:00 9.6 18 Oeste 35 Oeste 0 -- -- 73
2019-04-25 22:00:00 9.5 16 Oeste 33 Noroeste 0 -- -- 74
2019-04-25 21:00:00 11.7 30 Oeste 44 Oeste 0 -- -- 63
2019-04-25 20:00:00 12.7 31 Oeste 48 Oeste 0 -- -- 60
2019-04-25 19:00:00 13.1 35 Oeste 57 Oeste 0 -- -- 60
2019-04-25 18:00:00 14.5 36 Oeste 53 Oeste 0 -- -- 57
2019-04-25 17:00:00 14.6 39 Oeste 56 Oeste 0 -- -- 56
2019-04-25 16:00:00 13.1 37 Oeste 53 Oeste 0 -- -- 62
2019-04-25 15:00:00 13.3 37 Oeste 55 Oeste 0 -- -- 68
2019-04-25 14:00:00 10 27 Sudoeste 47 Oeste 2.4 -- -- 85
2019-04-25 13:00:00 9.4 20 Noroeste 45 Sudoeste 0 -- -- 85
2019-04-25 12:00:00 12.3 31 Oeste 41 Oeste 0 -- -- 71
2019-04-25 11:00:00 10.1 28 Oeste 46 Oeste 0 -- -- 77
2019-04-25 10:00:00 9.6 27 Oeste 41 Oeste 0 -- -- 85
2019-04-25 09:00:00 8.6 17 Sudoeste 24 Sudoeste 0 -- -- 93
2019-04-25 08:00:00 6.7 14 Sudoeste 28 Oeste 0 -- -- 95
2019-04-25 07:00:00 7.5 26 Oeste 44 Sudoeste 1 -- -- 93
2019-04-25 06:00:00 7.9 24 Oeste 33 Sudoeste 0 -- -- 89
2019-04-25 05:00:00 8.1 22 Oeste 31 Sudoeste 0 -- -- 89
2019-04-25 04:00:00 7.4 18 Oeste 34 Sudoeste 0 -- -- 90
2019-04-25 03:00:00 8 22 Sudoeste 31 Sudoeste 0 -- -- 89
2019-04-25 02:00:00 8.7 25 Sudoeste 44 Sudoeste 0 -- -- 92
2019-04-25 01:00:00 9.5 29 Oeste 42 Oeste 0 -- -- 93
2019-04-25 00:00:00 9.8 25 Sudoeste 35 Oeste 0 -- -- 96
2019-04-24 23:00:00 10.1 26 Oeste 51 Oeste 1 -- -- 95
2019-04-24 22:00:00 11.1 31 Oeste 50 Oeste 1.4 -- -- 95
2019-04-24 21:00:00 11.7 29 Sudoeste 41 Sudoeste 0 -- -- 94
2019-04-24 20:00:00 12.1 28 Sudoeste 37 Sudoeste 0 -- -- 93
2019-04-24 19:00:00 11.9 29 Sudoeste 48 Sudoeste 1.6 -- -- 95
2019-04-24 18:00:00 12.1 36 Sudoeste 50 Sudoeste 0.8 -- -- 91
2019-04-24 17:00:00 11.6 32 Sudoeste 58 Oeste 0.8 -- -- 92
2019-04-24 16:00:00 11.7 28 Oeste 58 Oeste 0.4 -- -- 92
2019-04-24 15:00:00 15.7 44 Sudoeste 63 Sudoeste 0 -- -- 68
2019-04-24 14:00:00 15.7 40 Sudoeste 54 Sudoeste 0 -- -- 68
2019-04-24 13:00:00 14 33 Sudoeste 46 Sudoeste 0 -- -- 85
2019-04-24 12:00:00 12.6 24 Sudoeste 32 Sudoeste 2.2 -- -- 100
2019-04-24 11:00:00 10.2 28 Sudoeste 57 Sudoeste 4.4 -- -- 99
2019-04-24 10:00:00 9.6 40 Sur 62 Sur 1 -- -- 99
2019-04-24 09:00:00 8.8 41 Sur 56 Sur 0.2 -- -- 99
2019-04-24 08:00:00 8.1 41 Sur 56 Sur 1.4 -- -- 99
2019-04-24 07:00:00 7.6 30 Sur 41 Sur 2.8 -- -- 99
2019-04-24 06:00:00 7.1 23 Sur 35 Sur 2.2 -- -- 99
2019-04-24 05:00:00 6.4 23 Sur 30 Sur 1 -- -- 98
2019-04-24 04:00:00 6.3 19 Sur 27 Sur 0.4 -- -- 96
2019-04-24 03:00:00 6.2 18 Sur 24 Sur 0 -- -- 95
2019-04-24 02:00:00 5.4 14 Sur 19 Sur 0 -- -- 96
2019-04-24 01:00:00 5.6 11 Sur 15 Sudoeste 0 -- -- 93
2019-04-24 00:00:00 5.6 12 Sudoeste 23 Sudoeste 0 -- -- 93
2019-04-23 23:00:00 5.5 10 Sur 15 Sudoeste 0 -- -- 92
2019-04-23 22:00:00 6 11 Sudoeste 22 Noroeste 0 -- -- 87
2019-04-23 21:00:00 6.3 19 Noroeste 43 Noroeste 0 -- -- 84
2019-04-23 20:00:00 8.6 26 Oeste 37 Sudoeste 0 -- -- 68
2019-04-23 19:00:00 8.9 31 Oeste 48 Oeste 0 -- -- 73
2019-04-23 18:00:00 11.2 33 Oeste 54 Oeste 0 -- -- 62
2019-04-23 17:00:00 12.1 33 Oeste 48 Oeste 0 -- -- 62
2019-04-23 16:00:00 9.8 31 Oeste 44 Oeste 0 -- -- 71
2019-04-23 15:00:00 9.5 29 Oeste 44 Oeste 0 -- -- 77
2019-04-23 14:00:00 7.6 37 Oeste 53 Sudoeste 0.6 -- -- 86
2019-04-23 13:00:00 8.4 28 Oeste 48 Oeste 0 -- -- 87
2019-04-23 12:00:00 8.7 18 Oeste 36 Oeste 0 -- -- 85
2019-04-23 11:00:00 7.9 20 Sudoeste 30 Sudoeste 0.2 -- -- 91
2019-04-23 10:00:00 7.4 19 Sudoeste 31 Sudoeste 0 -- -- 88
2019-04-23 09:00:00 6.8 15 Sudoeste 23 Sudoeste 0 -- -- 92
2019-04-23 08:00:00 5.7 11 Sudoeste 26 Oeste 0 -- -- 96
2019-04-23 07:00:00 6.1 14 Oeste 26 Oeste 0 -- -- 96
2019-04-23 06:00:00 7 20 Oeste 32 Sudoeste 0 -- -- 94
2019-04-23 05:00:00 7.8 20 Oeste 38 Oeste 0.2 -- -- 93
2019-04-23 04:00:00 8.4 15 Oeste 22 Oeste 1.2 -- -- 97
2019-04-23 03:00:00 8.5 14 Oeste 39 Oeste 1.2 -- -- 95
2019-04-23 02:00:00 8.7 28 Oeste 47 Oeste 2.8 -- -- 93
2019-04-23 01:00:00 11.9 26 Sudoeste 40 Sudoeste 0 -- -- 80
2019-04-23 00:00:00 13.4 21 Sudoeste 31 Sudoeste 0 -- -- 77
2019-04-22 23:00:00 14.2 16 Sudoeste 31 Sudoeste 0 -- -- 77
2019-04-22 22:00:00 15.4 13 Sudoeste 26 Oeste 0 -- -- 59
2019-04-22 21:00:00 16.1 21 Oeste 37 Oeste 0 -- -- 51
2019-04-22 20:00:00 17.2 26 Oeste 39 Oeste 0 -- -- 53
2019-04-22 19:00:00 18.7 26 Oeste 40 Sudoeste 0 -- -- 45
2019-04-22 18:00:00 20.3 26 Oeste 39 Sudoeste 0 -- -- 43
2019-04-22 17:00:00 19.7 17 Oeste 29 Sudoeste 0 -- -- 46
2019-04-22 16:00:00 19.9 9 Sudoeste 23 Oeste 0 -- -- 45
2019-04-22 15:00:00 20.7 10 Sudoeste 22 Sur 0 -- -- 42
2019-04-22 14:00:00 19.9 10 Oeste 22 Sudoeste 0 -- -- 47
2019-04-22 13:00:00 19.1 7 Sur 18 Sudeste 0 -- -- 48
2019-04-22 12:00:00 17.7 8 Sudeste 19 Sudeste 0 -- -- 51
2019-04-22 11:00:00 16.3 7 Este 14 Sudeste 0 -- -- 56
2019-04-22 10:00:00 14.2 8 Sudeste 15 Este 0 -- -- 64
2019-04-22 09:00:00 11 7 Este 13 Este 0 -- -- 77
2019-04-22 08:00:00 8.8 12 Este 16 Este 0 -- -- 84
2019-04-22 07:00:00 8.7 12 Este 15 Este 0 -- -- 83
2019-04-22 06:00:00 10.2 8 Este 13 Este 0 -- -- 76
2019-04-22 05:00:00 10.2 5 Este 15 Este 0 -- -- 78
2019-04-22 04:00:00 10.3 13 Este 16 Este 0 -- -- 78
2019-04-22 03:00:00 11.4 10 Este 19 Este 0 -- -- 74
2019-04-22 02:00:00 11.7 15 Este 19 Este 0 -- -- 73
2019-04-22 01:00:00 11.8 11 Este 15 Este 0 -- -- 73
2019-04-22 00:00:00 12.4 12 Este 18 Este 0 -- -- 70
2019-04-21 23:00:00 12.8 12 Este 18 Este 0 -- -- 65
2019-04-21 22:00:00 13.9 13 Este 21 Este 0 -- -- 62
2019-04-21 21:00:00 16.5 8 Este 23 Este 0 -- -- 55
2019-04-21 20:00:00 17.7 12 Este 32 Este 0 -- -- 51
2019-04-21 19:00:00 18.9 18 Nordeste 26 Nordeste 0 -- -- 43
2019-04-21 18:00:00 20.5 13 Nordeste 27 Nordeste 0 -- -- 39
2019-04-21 17:00:00 20.5 16 Nordeste 32 Nordeste 0 -- -- 39
2019-04-21 16:00:00 19.7 15 Nordeste 27 Este 0 -- -- 42
2019-04-21 15:00:00 20.5 15 Nordeste 35 Nordeste 0 -- -- 39
2019-04-21 14:00:00 18.4 21 Norte 33 Nordeste 0 -- -- 47
2019-04-21 13:00:00 17.3 14 Nordeste 28 Nordeste 0 -- -- 54
2019-04-21 12:00:00 16.9 11 Nordeste 23 Nordeste 0 -- -- 55
2019-04-21 11:00:00 15.9 9 Este 28 Este 0 -- -- 56
2019-04-21 10:00:00 13.6 16 Este 24 Nordeste 0 -- -- 65
2019-04-21 09:00:00 10.6 10 Nordeste 18 Nordeste 0 -- -- 81
2019-04-21 08:00:00 8.2 10 Nordeste 18 Nordeste 0 -- -- 88
2019-04-21 07:00:00 8.9 5 Norte 23 Este 0 -- -- 82
2019-04-21 06:00:00 9.8 16 Nordeste 38 Este 0 -- -- 78
2019-04-21 05:00:00 9.9 16 Este 22 Este 0 -- -- 80
2019-04-21 04:00:00 10 10 Nordeste 18 Nordeste 0 -- -- 85
2019-04-21 03:00:00 9.9 14 Nordeste 19 Nordeste 0 -- -- 84
2019-04-21 02:00:00 10.7 9 Nordeste 22 Sudeste 0 -- -- 77
2019-04-21 01:00:00 12.1 16 Sudeste 24 Sudeste 0 -- -- 73
2019-04-21 00:00:00 12.4 15 Sudeste 28 Sudeste 0 -- -- 72
2019-04-20 23:00:00 13.8 20 Sudeste 39 Sudeste 0 -- -- 69
2019-04-20 22:00:00 15.8 27 Sudeste 37 Sudeste 0 -- -- 65
2019-04-20 21:00:00 19.5 13 Sudeste 25 Sudeste 0 -- -- 47
2019-04-20 20:00:00 22.1 12 Este 27 Este 0 -- -- 39
2019-04-20 19:00:00 23.1 10 Este 25 Nordeste 0 -- -- 38
2019-04-20 18:00:00 23.2 17 Este 31 Este 0 -- -- 37
2019-04-20 17:00:00 23.3 15 Este 32 Este 0 -- -- 37
2019-04-20 16:00:00 22.8 19 Este 35 Este 0 -- -- 41
2019-04-20 15:00:00 21.7 20 Este 45 Nordeste 0 -- -- 42
2019-04-20 14:00:00 20.8 24 Este 39 Nordeste 0 -- -- 43
2019-04-20 13:00:00 18.3 15 Nordeste 28 Nordeste 0 -- -- 56
2019-04-20 12:00:00 15.5 14 Nordeste 23 Nordeste 0 -- -- 71
2019-04-20 11:00:00 14.2 12 Norte 21 Norte 0 -- -- 81
2019-04-20 10:00:00 11.4 13 Norte 20 Nordeste 0 -- -- 92
2019-04-20 09:00:00 9.7 12 Norte 15 Norte 0 -- -- 97
2019-04-20 08:00:00 9.1 10 Norte 16 Nordeste 0 -- -- 97
2019-04-20 07:00:00 9.7 11 Este 23 Nordeste 0.6 -- -- 95
2019-04-20 06:00:00 9.9 13 Nordeste 33 Nordeste 0 -- -- 93
2019-04-20 05:00:00 9.8 21 Nordeste 32 Nordeste 0 -- -- 91
2019-04-20 04:00:00 9.4 19 Este 29 Este 0 -- -- 93
2019-04-20 03:00:00 9.7 10 Este 22 Este 0 -- -- 95
2019-04-20 02:00:00 9.8 15 Nordeste 26 Este 0.2 -- -- 95
2019-04-20 01:00:00 10.4 14 Este 35 Este 1.2 -- -- 95
2019-04-20 00:00:00 10.9 15 Este 26 Este 0.2 -- -- 92
2019-04-19 23:00:00 11.4 10 Este 26 Este 0.2 -- -- 87
2019-04-19 22:00:00 12.9 15 Este 27 Este 0 -- -- 76
2019-04-19 21:00:00 13.6 18 Este 39 Este 0 -- -- 73
2019-04-19 20:00:00 14.6 22 Este 39 Nordeste 0 -- -- 66
2019-04-19 19:00:00 15.9 26 Este 42 Este 0 -- -- 59
2019-04-19 18:00:00 17.3 14 Sudeste 32 Este 0 -- -- 60
2019-04-19 17:00:00 16.8 17 Este 31 Este 0 -- -- 62
2019-04-19 16:00:00 16.8 6 Este 16 Este 0 -- -- 64
2019-04-19 15:00:00 15.6 6 Sur 14 Sur 0 -- -- 73
2019-04-19 14:00:00 12.9 9 Sur 17 Sur 0.2 -- -- 86
2019-04-19 13:00:00 12.4 11 Sudeste 22 Sudeste 0 -- -- 84
2019-04-19 12:00:00 12.5 9 Este 17 Este 0 -- -- 85
2019-04-19 11:00:00 11.4 6 Este 12 Nordeste 0.2 -- -- 92
2019-04-19 10:00:00 10.7 6 Nordeste 10 Nordeste 0 -- -- 94
2019-04-19 09:00:00 9.7 4 Noroeste 8 Noroeste 0.2 -- -- 97
2019-04-19 08:00:00 9.5 7 Noroeste 10 Oeste 0 -- -- 94
2019-04-19 07:00:00 9 5 Noroeste 10 Oeste 0 -- -- 96
2019-04-19 06:00:00 8.9 4 Oeste 6 Noroeste 0 -- -- 97
2019-04-19 05:00:00 8.6 4 Sudoeste 9 Sudoeste 0 -- -- 95
2019-04-19 04:00:00 9 6 Sudoeste 9 Oeste 0 -- -- 92
2019-04-19 03:00:00 9.7 6 Noroeste 12 Oeste 0 -- -- 92
2019-04-19 02:00:00 10.1 6 Oeste 9 Oeste 0 -- -- 92
2019-04-19 01:00:00 9.9 6 Norte 8 Norte 0 -- -- 91
2019-04-19 00:00:00 10.3 6 Noroeste 9 Oeste 0 -- -- 89
2019-04-18 23:00:00 10.4 6 Oeste 10 Oeste 0 -- -- 88
2019-04-18 22:00:00 11 7 Oeste 13 Oeste 0 -- -- 83
2019-04-18 21:00:00 11.4 7 Oeste 23 Nordeste 0 -- -- 85
2019-04-18 20:00:00 11.4 17 Nordeste 25 Nordeste 0 -- -- 85
2019-04-18 19:00:00 12.3 13 Nordeste 21 Nordeste 0 -- -- 76
2019-04-18 18:00:00 13.3 18 Nordeste 31 Nordeste 0 -- -- 66
2019-04-18 17:00:00 17.7 21 Noroeste 28 Oeste 0 -- -- 51
2019-04-18 16:00:00 16.7 12 Oeste 23 Oeste 0 -- -- 53
2019-04-18 15:00:00 17.5 15 Oeste 23 Oeste 0 -- -- 53
2019-04-18 14:00:00 15.9 8 Oeste 19 Oeste 0 -- -- 58
2019-04-18 13:00:00 16 10 Sur 17 Sur 0 -- -- 57
2019-04-18 12:00:00 15 9 Sur 19 Sur 0 -- -- 68
2019-04-18 11:00:00 13.1 12 Sudoeste 20 Sur 0 -- -- 78
2019-04-18 10:00:00 11.8 15 Sur 23 Sur 0 -- -- 89
2019-04-18 09:00:00 10.1 8 Sudeste 18 Sudeste 0 -- -- 97
2019-04-18 08:00:00 9.7 9 Sudeste 16 Sudeste 0 -- -- 97
2019-04-18 07:00:00 9.8 7 Sur 12 Sur 0 -- -- 97
2019-04-18 06:00:00 9.8 6 Sudeste 18 Sur 0 -- -- 96
2019-04-18 05:00:00 9.6 16 Sur 27 Sur 0 -- -- 96
2019-04-18 04:00:00 9.6 14 Sudeste 23 Sur 0 -- -- 97
2019-04-18 03:00:00 9.9 17 Sur 27 Sur 0 -- -- 97
2019-04-18 02:00:00 10 21 Sur 28 Sur 0 -- -- 97
2019-04-18 01:00:00 10.2 19 Sur 28 Sur 0 -- -- 97
2019-04-18 00:00:00 10.2 21 Sur 31 Sur 0.2 -- -- 97
2019-04-17 23:00:00 10.2 21 Sudoeste 35 Sudoeste 1.4 -- -- 96
2019-04-17 22:00:00 10.9 11 Sur 22 Sur 0.2 -- -- 96
2019-04-17 21:00:00 10.8 14 Sudoeste 23 Sur 2 -- -- 94
2019-04-17 20:00:00 11.4 17 Sur 30 Sur 0.2 -- -- 94
2019-04-17 19:00:00 11.8 20 Sur 28 Sur 0.6 -- -- 93
2019-04-17 18:00:00 12.1 16 Sudoeste 27 Sudoeste 2 -- -- 92
2019-04-17 17:00:00 12.4 24 Sudoeste 52 Sur 0.2 -- -- 89
2019-04-17 16:00:00 18.3 34 Sur 58 Sur 0 -- -- 52
2019-04-17 15:00:00 17.7 37 Sur 50 Sur 0 -- -- 55
2019-04-17 14:00:00 16.9 28 Sur 50 Sur 0 -- -- 56
2019-04-17 13:00:00 17 32 Sudeste 47 Sudeste 0 -- -- 58
2019-04-17 12:00:00 15.2 20 Sudeste 33 Sudeste 0 -- -- 59
2019-04-17 11:00:00 14 17 Sudeste 27 Sudeste 0 -- -- 63
2019-04-17 10:00:00 12.9 18 Sudeste 25 Sudeste 0 -- -- 68
2019-04-17 09:00:00 10.8 10 Sudeste 17 Sudeste 0 -- -- 74
2019-04-17 08:00:00 9.7 5 Sudeste 13 Sur 0 -- -- 76
2019-04-17 07:00:00 9.7 11 Sur 18 Sudeste 0 -- -- 74
2019-04-17 06:00:00 10.8 13 Sur 23 Sur 0 -- -- 67
2019-04-17 05:00:00 10.9 11 Sur 22 Sur 0 -- -- 67
2019-04-17 04:00:00 11.8 16 Sur 21 Sur 0 -- -- 62
2019-04-17 03:00:00 13.2 14 Sudeste 20 Sur 0 -- -- 53
2019-04-17 02:00:00 14.5 13 Sudeste 23 Sudeste 0 -- -- 47
2019-04-17 01:00:00 15.2 14 Sur 22 Sur 0 -- -- 49
2019-04-17 00:00:00 14.9 9 Sur 18 Sur 0 -- -- 53
2019-04-16 23:00:00 15.8 8 Sur 23 Sudeste 0 -- -- 52
2019-04-16 22:00:00 18 17 Sudeste 24 Sudeste 0 -- -- 43
2019-04-16 21:00:00 19.4 9 Este 19 Sudeste 0 -- -- 42
2019-04-16 20:00:00 21.1 14 Sudeste 31 Sudeste 0 -- -- 36
2019-04-16 19:00:00 21.9 17 Sudeste 33 Sudeste 0 -- -- 37
2019-04-16 18:00:00 22.1 17 Sudeste 43 Sudeste 0 -- -- 37
2019-04-16 17:00:00 21.9 21 Sudeste 35 Sudeste 0 -- -- 32
2019-04-16 16:00:00 21.5 15 Sudeste 33 Sudeste 0 -- -- 35
2019-04-16 15:00:00 20.6 18 Sudeste 35 Sudeste 0 -- -- 38
2019-04-16 14:00:00 19 16 Sur 32 Sur 0 -- -- 42
2019-04-16 13:00:00 17.5 13 Sudeste 24 Sur 0 -- -- 52
2019-04-16 12:00:00 15.9 10 Sudeste 20 Sur 0 -- -- 57
2019-04-16 11:00:00 14.5 7 Sudeste 14 Sudeste 0 -- -- 67
2019-04-16 10:00:00 11.6 3 Sudeste 8 Sudeste 0 -- -- 79
2019-04-16 09:00:00 9.3 3 Nordeste 8 Nordeste 0 -- -- 89
2019-04-16 08:00:00 7.9 0 Calma 5 Sur 0 -- -- 91
2019-04-16 07:00:00 7.2 4 Sur 9 Nordeste 0 -- -- 93
2019-04-16 06:00:00 7.9 7 Nordeste 9 Nordeste 0 -- -- 89
2019-04-16 05:00:00 7.9 6 Noroeste 11 Noroeste 0 -- -- 92
2019-04-16 04:00:00 8 9 Oeste 12 Noroeste 0 -- -- 91
2019-04-16 03:00:00 8.4 11 Noroeste 16 Oeste 0 -- -- 89
2019-04-16 02:00:00 8.8 12 Oeste 14 Oeste 0 -- -- 86
2019-04-16 01:00:00 9.5 6 Oeste 14 Noroeste 0 -- -- 83
2019-04-16 00:00:00 10.1 12 Noroeste 17 Noroeste 0 -- -- 80
2019-04-15 23:00:00 10.7 14 Noroeste 25 Oeste 0 -- -- 78
2019-04-15 22:00:00 12.9 21 Oeste 27 Oeste 0 -- -- 69
2019-04-15 21:00:00 14.9 18 Oeste 31 Oeste 0 -- -- 59
2019-04-15 20:00:00 17.2 24 Oeste 38 Noroeste 0 -- -- 53
2019-04-15 19:00:00 18.2 26 Oeste 37 Oeste 0 -- -- 48
2019-04-15 18:00:00 17.6 18 Oeste 32 Oeste 0 -- -- 61
2019-04-15 17:00:00 15.9 20 Oeste 30 Oeste 0 -- -- 77
2019-04-15 16:00:00 13.1 21 Oeste 37 Oeste 0.8 -- -- 90
2019-04-15 15:00:00 13.6 32 Oeste 59 Noroeste 0 -- -- 75
2019-04-15 14:00:00 19.6 24 Oeste 43 Oeste 0 -- -- 49
2019-04-15 13:00:00 18.4 19 Oeste 34 Oeste 0 -- -- 55
2019-04-15 12:00:00 17.2 21 Oeste 36 Oeste 0 -- -- 60
2019-04-15 11:00:00 17.3 15 Sudoeste 23 Sudoeste 0 -- -- 64
2019-04-15 10:00:00 15 14 Oeste 19 Oeste 0 -- -- 76
2019-04-15 09:00:00 13.6 10 Oeste 13 Oeste 0 -- -- 91
2019-04-15 08:00:00 13.4 9 Sudoeste 13 Sudoeste 0 -- -- 87
2019-04-15 07:00:00 14.3 8 Sudeste 15 Sudeste 0 -- -- 83
2019-04-15 06:00:00 14.9 8 Sudeste 15 Sudeste 0 -- -- 80
2019-04-15 05:00:00 15.3 8 Sur 12 Sudeste 0 -- -- 79
2019-04-15 04:00:00 16.1 8 Sudeste 12 Sudeste 0 -- -- 76
2019-04-15 03:00:00 16.3 6 Sudeste 10 Sudeste 0 -- -- 75
2019-04-15 02:00:00 16.6 5 Sur 8 Sur 0 -- -- 74
2019-04-15 01:00:00 17.4 2 Sudeste 5 Norte 0 -- -- 70
2019-04-15 00:00:00 18 4 Norte 5 Norte 0 -- -- 72
2019-04-14 23:00:00 18.4 0 Calma 4 Sudoeste 0 -- -- 70
2019-04-14 22:00:00 18.6 2 Oeste 10 Sudoeste 0 -- -- 67
2019-04-14 21:00:00 19.8 8 Sudoeste 15 Sudoeste 0 -- -- 64
2019-04-14 20:00:00 21 11 Sudoeste 21 Sudoeste 0 -- -- 60
2019-04-14 19:00:00 21.8 12 Sudoeste 22 Sudoeste 0 -- -- 56
2019-04-14 18:00:00 23.9 10 Sudoeste 21 Oeste 0 -- -- 51
2019-04-14 17:00:00 23.4 9 Sudoeste 27 Sudoeste 0 -- -- 52
2019-04-14 16:00:00 22.9 9 Sudoeste 17 Sudoeste 0 -- -- 54
2019-04-14 15:00:00 20.9 6 Oeste 15 Oeste 0 -- -- 61
2019-04-14 14:00:00 20.7 7 Sur 13 Sudoeste 0 -- -- 65
2019-04-14 13:00:00 18.8 7 Oeste 15 Noroeste 0 -- -- 72
2019-04-14 12:00:00 17.6 5 Noroeste 12 Sur 0 -- -- 79
2019-04-14 11:00:00 15.2 5 Sudoeste 14 Oeste 0 -- -- 91
2019-04-14 10:00:00 13.3 10 Oeste 15 Oeste 0 -- -- 98
2019-04-14 09:00:00 13.2 10 Oeste 14 Oeste 0 -- -- 98
2019-04-14 08:00:00 13 12 Noroeste 15 Noroeste 0 -- -- 98
2019-04-14 07:00:00 13 12 Oeste 16 Oeste 0 -- -- 99
2019-04-14 06:00:00 12.6 6 Oeste 12 Oeste 0 -- -- 98
2019-04-14 05:00:00 12.2 8 Oeste 15 Oeste 0 -- -- 97
2019-04-14 04:00:00 12 8 Oeste 15 Oeste 0 -- -- 98
2019-04-14 03:00:00 11.9 9 Oeste 13 Oeste 0 -- -- 96
2019-04-14 02:00:00 12.6 5 Noroeste 19 Oeste 0 -- -- 94
2019-04-14 01:00:00 13.1 15 Oeste 23 Oeste 0 -- -- 93
2019-04-14 00:00:00 14 17 Oeste 28 Oeste 0 -- -- 88
2019-04-13 23:00:00 14.8 18 Oeste 24 Oeste 0 -- -- 81
2019-04-13 22:00:00 16.4 20 Oeste 27 Oeste 0 -- -- 73
2019-04-13 21:00:00 17.4 19 Oeste 26 Oeste 0 -- -- 65
2019-04-13 20:00:00 18.5 18 Oeste 31 Oeste 0 -- -- 57
2019-04-13 19:00:00 19.9 17 Oeste 31 Noroeste 0 -- -- 41
2019-04-13 18:00:00 19.9 22 Noroeste 38 Oeste 0 -- -- 41
2019-04-13 17:00:00 22.8 15 Oeste 31 Oeste 0 -- -- 28
2019-04-13 16:00:00 22.3 12 Oeste 23 Sudoeste 0 -- -- 32
2019-04-13 15:00:00 21.6 11 Sudoeste 25 Sudoeste 0 -- -- 33
2019-04-13 14:00:00 20.4 6 Oeste 15 Sudoeste 0 -- -- 40
2019-04-13 13:00:00 19.3 8 Noroeste 14 Oeste 0 -- -- 48
2019-04-13 12:00:00 17.5 4 Norte 10 Oeste 0 -- -- 56
2019-04-13 11:00:00 16.1 3 Sudoeste 9 Norte 0 -- -- 60
2019-04-13 10:00:00 12.7 4 Norte 8 Noroeste 0 -- -- 74
2019-04-13 09:00:00 10.8 5 Noroeste 8 Noroeste 0 -- -- 81
2019-04-13 08:00:00 10.2 8 Noroeste 9 Noroeste 0 -- -- 81
2019-04-13 07:00:00 9.8 9 Noroeste 12 Noroeste 0 -- -- 83
2019-04-13 06:00:00 9.9 9 Noroeste 13 Noroeste 0 -- -- 83
2019-04-13 05:00:00 10.3 8 Oeste 10 Oeste 0 -- -- 80
2019-04-13 04:00:00 10.5 6 Noroeste 10 Noroeste 0 -- -- 78
2019-04-13 03:00:00 10.5 10 Noroeste 18 Noroeste 0 -- -- 78
2019-04-13 02:00:00 10.9 10 Oeste 16 Oeste 0 -- -- 76
2019-04-13 01:00:00 11.6 14 Oeste 20 Oeste 0 -- -- 72
2019-04-13 00:00:00 13.3 14 Oeste 19 Oeste 0 -- -- 60
2019-04-12 23:00:00 14.5 12 Oeste 18 Oeste 0 -- -- 49
2019-04-12 22:00:00 16 9 Sudoeste 10 Sudoeste 0 -- -- 39
2019-04-12 21:00:00 17.1 8 Oeste 12 Oeste 0 -- -- 39
2019-04-12 20:00:00 19.6 9 Oeste 22 Oeste 0 -- -- 37
2019-04-12 19:00:00 20.6 5 Oeste 20 Oeste 0 -- -- 30
2019-04-12 18:00:00 20.3 14 Noroeste 20 Noroeste 0 -- -- 30
2019-04-12 17:00:00 20.2 3 Noroeste 23 Noroeste 0 -- -- 31
2019-04-12 16:00:00 19.5 8 Noroeste 20 Norte 0 -- -- 32
2019-04-12 15:00:00 18.6 12 Norte 31 Noroeste 0 -- -- 34
2019-04-12 14:00:00 18 7 Noroeste 25 Nordeste 0 -- -- 33
2019-04-12 13:00:00 17.3 8 Noroeste 23 Nordeste 0 -- -- 34
2019-04-12 12:00:00 17.1 11 Nordeste 19 Este 0 -- -- 35
2019-04-12 11:00:00 15.1 7 Nordeste 18 Nordeste 0 -- -- 44
2019-04-12 10:00:00 12.5 11 Nordeste 18 Nordeste 0 -- -- 53
2019-04-12 09:00:00 8.7 13 Nordeste 19 Nordeste 0 -- -- 68
2019-04-12 08:00:00 7.1 17 Nordeste 21 Nordeste 0 -- -- 73
2019-04-12 07:00:00 6.8 18 Nordeste 23 Nordeste 0 -- -- 70
2019-04-12 06:00:00 7.6 18 Nordeste 23 Norte 0 -- -- 68
2019-04-12 05:00:00 6.8 16 Norte 18 Norte 0 -- -- 69
2019-04-12 04:00:00 6.7 12 Nordeste 14 Nordeste 0 -- -- 70
2019-04-12 03:00:00 7.7 11 Norte 13 Norte 0 -- -- 66
2019-04-12 02:00:00 8.9 11 Norte 14 Norte 0 -- -- 60
2019-04-12 01:00:00 9.6 13 Nordeste 15 Nordeste 0 -- -- 58
2019-04-12 00:00:00 10.2 12 Nordeste 14 Norte 0 -- -- 56
2019-04-11 23:00:00 10.8 13 Nordeste 18 Norte 0 -- -- 54
2019-04-11 22:00:00 11.7 13 Nordeste 16 Nordeste 0 -- -- 51
2019-04-11 21:00:00 12.9 13 Norte 17 Norte 0 -- -- 49
2019-04-11 20:00:00 16.7 12 Norte 20 Norte 0 -- -- 40
2019-04-11 19:00:00 17.4 13 Norte 25 Norte 0 -- -- 38
2019-04-11 18:00:00 18.4 15 Norte 30 Noroeste 0 -- -- 36
2019-04-11 17:00:00 18.7 18 Noroeste 29 Noroeste 0 -- -- 36
2019-04-11 16:00:00 17.1 12 Norte 29 Norte 0 -- -- 40
2019-04-11 15:00:00 17.4 15 Norte 25 Noroeste 0 -- -- 45
2019-04-11 14:00:00 16.5 15 Noroeste 28 Noroeste 0 -- -- 43
2019-04-11 13:00:00 15.5 8 Noroeste 19 Noroeste 0 -- -- 48
2019-04-11 12:00:00 14.1 10 Norte 17 Norte 0 -- -- 60
2019-04-11 11:00:00 11.3 9 Noroeste 12 Noroeste 0 -- -- 75
2019-04-11 10:00:00 8.9 6 Noroeste 9 Noroeste 0 -- -- 85
2019-04-11 09:00:00 6.5 5 Noroeste 12 Norte 0 -- -- 93
2019-04-11 08:00:00 4.6 12 Norte 14 Norte 0 -- -- 94
2019-04-11 07:00:00 5.1 13 Norte 21 Norte 0 -- -- 93
2019-04-11 06:00:00 6.1 19 Norte 23 Norte 0 -- -- 91
2019-04-11 05:00:00 6.2 19 Norte 26 Noroeste 0 -- -- 91
2019-04-11 04:00:00 6.5 24 Noroeste 27 Noroeste 0 -- -- 91
2019-04-11 03:00:00 6 17 Noroeste 20 Noroeste 0 -- -- 91
2019-04-11 02:00:00 6.3 13 Noroeste 15 Noroeste 0 -- -- 84
2019-04-11 01:00:00 7.9 6 Noroeste 9 Oeste 0 -- -- 77
2019-04-11 00:00:00 7.9 5 Norte 14 Nordeste 0 -- -- 77
2019-04-10 23:00:00 9.9 12 Nordeste 22 Norte 0 -- -- 69
2019-04-10 22:00:00 11.7 7 Norte 31 Noroeste 0 -- -- 64
2019-04-10 21:00:00 12.9 19 Noroeste 37 Noroeste 0 -- -- 62
2019-04-10 20:00:00 15 26 Noroeste 46 Noroeste 0 -- -- 51
2019-04-10 19:00:00 15.2 32 Noroeste 48 Oeste 0 -- -- 56
2019-04-10 18:00:00 16.5 27 Noroeste 49 Noroeste 0 -- -- 52
2019-04-10 17:00:00 16.7 30 Noroeste 46 Noroeste 0 -- -- 49
2019-04-10 16:00:00 16.2 26 Noroeste 42 Noroeste 0 -- -- 50
2019-04-10 15:00:00 13.9 24 Noroeste 38 Noroeste 0 -- -- 62
2019-04-10 14:00:00 13.8 22 Noroeste 33 Noroeste 0 -- -- 61
2019-04-10 13:00:00 13.3 22 Oeste 31 Noroeste 0 -- -- 61
2019-04-10 12:00:00 11.8 22 Noroeste 30 Noroeste 0 -- -- 76
2019-04-10 11:00:00 10 23 Noroeste 31 Noroeste 0 -- -- 82
2019-04-10 10:00:00 8.3 13 Oeste 19 Oeste 0 -- -- 96
2019-04-10 09:00:00 6.7 13 Oeste 19 Oeste 0 -- -- 99
2019-04-10 08:00:00 5.4 12 Noroeste 16 Noroeste 0 -- -- 98
2019-04-10 07:00:00 5.3 7 Oeste 12 Oeste 0 -- -- 97
2019-04-10 06:00:00 5.6 8 Oeste 18 Oeste 0 -- -- 97
2019-04-10 05:00:00 5.8 12 Oeste 14 Oeste 0 -- -- 96
2019-04-10 04:00:00 6 12 Oeste 16 Sudoeste 0 -- -- 96
2019-04-10 03:00:00 6.5 12 Oeste 19 Oeste 0 -- -- 94
2019-04-10 02:00:00 7.1 15 Oeste 23 Oeste 0 -- -- 91
2019-04-10 01:00:00 7.5 15 Oeste 29 Oeste 0 -- -- 90
2019-04-10 00:00:00 8 21 Oeste 32 Oeste 0 -- -- 87
2019-04-09 23:00:00 8.7 22 Oeste 34 Oeste 0 -- -- 83
2019-04-09 22:00:00 9.3 19 Oeste 32 Oeste 0 -- -- 79
2019-04-09 21:00:00 10.9 26 Oeste 36 Oeste 0 -- -- 72
2019-04-09 20:00:00 12.5 27 Oeste 45 Oeste 0 -- -- 69
2019-04-09 19:00:00 12.5 32 Oeste 47 Oeste 0.2 -- -- 75
2019-04-09 18:00:00 14.6 31 Oeste 45 Oeste 0.2 -- -- 58
2019-04-09 17:00:00 12.2 31 Oeste 50 Oeste 0.6 -- -- 72
2019-04-09 16:00:00 15.3 37 Oeste 50 Oeste 0 -- -- 56
2019-04-09 15:00:00 15.1 30 Oeste 43 Oeste 0 -- -- 56
2019-04-09 14:00:00 13.7 33 Oeste 47 Oeste 0 -- -- 63
2019-04-09 13:00:00 12.3 31 Oeste 41 Oeste 0 -- -- 73
2019-04-09 12:00:00 10.8 34 Oeste 46 Oeste 0.4 -- -- 83
2019-04-09 11:00:00 10.2 26 Oeste 38 Oeste 0 -- -- 83
2019-04-09 10:00:00 9.2 23 Oeste 39 Oeste 0 -- -- 89
2019-04-09 09:00:00 8.1 14 Sudoeste 22 Sudoeste 0 -- -- 97
2019-04-09 08:00:00 7.8 11 Sudoeste 21 Sudoeste 0 -- -- 98
2019-04-09 07:00:00 7.2 14 Sudoeste 19 Sudoeste 0 -- -- 98
2019-04-09 06:00:00 6.8 13 Sudoeste 18 Sudoeste 0 -- -- 97
2019-04-09 05:00:00 7.1 12 Sur 17 Sudoeste 0 -- -- 95
2019-04-09 04:00:00 7.4 9 Sur 14 Sudoeste 0 -- -- 92
2019-04-09 03:00:00 7.1 10 Sudoeste 15 Sudoeste 0 -- -- 92
2019-04-09 02:00:00 6.8 11 Sudoeste 19 Sudoeste 0 -- -- 91
2019-04-09 01:00:00 7.3 16 Sudoeste 22 Sudoeste 0 -- -- 89
2019-04-09 00:00:00 7.5 15 Sudoeste 21 Sudoeste 0 -- -- 88
2019-04-08 23:00:00 8 18 Sudoeste 22 Oeste 0 -- -- 86
2019-04-08 22:00:00 8.8 16 Oeste 29 Oeste 0 -- -- 83
2019-04-08 21:00:00 10.3 23 Oeste 31 Oeste 0 -- -- 73
2019-04-08 20:00:00 11.4 24 Oeste 41 Oeste 0 -- -- 69
2019-04-08 19:00:00 13.2 29 Oeste 44 Oeste 0 -- -- 64
2019-04-08 18:00:00 12.6 26 Oeste 56 Oeste 0 -- -- 65
2019-04-08 17:00:00 14.1 31 Oeste 43 Oeste 0 -- -- 65
2019-04-08 16:00:00 15.7 22 Oeste 35 Oeste 0 -- -- 48
2019-04-08 15:00:00 15.9 19 Oeste 35 Oeste 0 -- -- 45
2019-04-08 14:00:00 14.2 18 Oeste 31 Oeste 0 -- -- 54
2019-04-08 13:00:00 13 17 Noroeste 31 Oeste 0 -- -- 69
2019-04-08 12:00:00 12.3 20 Oeste 32 Oeste 0 -- -- 77
2019-04-08 11:00:00 11.3 19 Oeste 26 Oeste 0 -- -- 83
2019-04-08 10:00:00 10.4 19 Oeste 24 Oeste 0 -- -- 94
2019-04-08 09:00:00 9.5 13 Oeste 19 Sudoeste 0 -- -- 98
2019-04-08 08:00:00 9.3 9 Sudoeste 17 Oeste 0 -- -- 99
2019-04-08 07:00:00 9.4 10 Oeste 24 Oeste 0 -- -- 99
2019-04-08 06:00:00 10.1 15 Oeste 22 Sudoeste 0.4 -- -- 99
2019-04-08 05:00:00 10.4 19 Sudoeste 41 Sudoeste 1 -- -- 99
2019-04-08 04:00:00 10.6 19 Sudoeste 29 Sur 1.2 -- -- 99
2019-04-08 03:00:00 10.7 23 Sur 28 Sur 0.2 -- -- 98
2019-04-08 02:00:00 10.8 13 Sur 17 Sur 0.2 -- -- 98
2019-04-08 01:00:00 10.8 11 Sur 15 Sur 0 -- -- 97
2019-04-08 00:00:00 10.8 8 Sur 13 Sur 0 -- -- 97
2019-04-07 23:00:00 10.9 7 Sudoeste 12 Sudoeste 0 -- -- 95
2019-04-07 22:00:00 11.1 8 Sudoeste 14 Sudoeste 0 -- -- 96
2019-04-07 21:00:00 11 12 Sudoeste 22 Sudoeste 0.8 -- -- 97
2019-04-07 20:00:00 11.5 13 Sudoeste 23 Sudoeste 0 -- -- 98
2019-04-07 19:00:00 11.2 17 Sudoeste 31 Sur 1 -- -- 97
2019-04-07 18:00:00 11.4 21 Sudoeste 31 Sudoeste 0 -- -- 93
2019-04-07 17:00:00 10.9 19 Sur 29 Sur 0 -- -- 94
2019-04-07 16:00:00 11.3 23 Sur 32 Sur 0 -- -- 88
2019-04-07 15:00:00 11.8 22 Sudoeste 31 Sudoeste 0.2 -- -- 82
2019-04-07 14:00:00 11.2 13 Sur 24 Sudoeste 0 -- -- 89
2019-04-07 13:00:00 9.6 18 Sudoeste 27 Sudoeste 0.4 -- -- 91
2019-04-07 12:00:00 9.8 11 Sudoeste 19 Sudoeste 0 -- -- 82
2019-04-07 11:00:00 8.8 10 Sudoeste 18 Sudoeste 0 -- -- 88
2019-04-07 10:00:00 8 12 Sudoeste 17 Sudoeste 0 -- -- 94
2019-04-07 09:00:00 7.3 10 Oeste 20 Oeste 0 -- -- 96
2019-04-07 08:00:00 6.7 16 Oeste 21 Oeste 0 -- -- 98
2019-04-07 07:00:00 6.3 12 Sudoeste 20 Sudoeste 0 -- -- 98
2019-04-07 06:00:00 6.7 16 Sudoeste 25 Oeste 0 -- -- 97
2019-04-07 05:00:00 6.7 18 Oeste 27 Oeste 0 -- -- 96
2019-04-07 04:00:00 7 19 Oeste 27 Oeste 0 -- -- 94
2019-04-07 03:00:00 6.9 17 Oeste 30 Oeste 0 -- -- 95
2019-04-07 02:00:00 7.3 23 Oeste 34 Oeste 0 -- -- 93
2019-04-07 01:00:00 7.3 22 Oeste 30 Oeste 0 -- -- 91
2019-04-07 00:00:00 7.1 25 Oeste 33 Oeste 0 -- -- 92
2019-04-06 23:00:00 7.2 23 Oeste 32 Oeste 0 -- -- 88
2019-04-06 22:00:00 6.8 17 Oeste 31 Oeste 0 -- -- 88
2019-04-06 21:00:00 7 22 Oeste 42 Oeste 0 -- -- 83
2019-04-06 20:00:00 8.4 29 Oeste 47 Oeste 0 -- -- 77
2019-04-06 19:00:00 10.1 34 Oeste 49 Noroeste 0 -- -- 69
2019-04-06 18:00:00 10 28 Noroeste 45 Noroeste 0 -- -- 81
2019-04-06 17:00:00 8.2 22 Oeste 37 Oeste 1 -- -- 85
2019-04-06 16:00:00 6.6 22 Noroeste 40 Oeste 0.8 -- -- 87
2019-04-06 15:00:00 6.5 31 Sudoeste 59 Oeste 1.2 -- -- 93
2019-04-06 14:00:00 9 30 Oeste 49 Oeste 0.4 -- -- 78
2019-04-06 13:00:00 8.7 24 Oeste 33 Oeste 0.4 -- -- 86
2019-04-06 12:00:00 6 23 Noroeste 35 Noroeste 0.2 -- -- 88
2019-04-06 11:00:00 7.2 26 Oeste 38 Oeste 0 -- -- 86
2019-04-06 10:00:00 7.1 25 Oeste 35 Oeste 0.2 -- -- 91
2019-04-06 09:00:00 5.9 23 Oeste 32 Oeste 0.2 -- -- 93
2019-04-06 08:00:00 5.5 17 Oeste 28 Oeste 0.2 -- -- 92
2019-04-06 07:00:00 5.5 20 Sudoeste 32 Sudoeste 0 -- -- 92
2019-04-06 06:00:00 5.7 18 Sudoeste 26 Sudoeste 0 -- -- 93
2019-04-06 05:00:00 5.3 19 Oeste 27 Oeste 0 -- -- 96
2019-04-06 04:00:00 4.6 13 Sudoeste 24 Sudoeste 0 -- -- 95
2019-04-06 03:00:00 5.4 13 Sudoeste 33 Oeste 0 -- -- 93
2019-04-06 02:00:00 5.3 18 Oeste 25 Sudoeste 0.2 -- -- 94
2019-04-06 01:00:00 5 18 Sudoeste 30 Oeste 0 -- -- 94
2019-04-06 00:00:00 4.8 19 Oeste 27 Oeste 0 -- -- 92
2019-04-05 23:00:00 5.4 17 Oeste 27 Oeste 0 -- -- 92
2019-04-05 22:00:00 5.8 16 Oeste 31 Oeste 0 -- -- 88
2019-04-05 21:00:00 6.7 25 Oeste 41 Oeste 0 -- -- 87
2019-04-05 20:00:00 7.7 24 Oeste 37 Oeste 0 -- -- 82
2019-04-05 19:00:00 8.4 28 Oeste 42 Sudoeste 0 -- -- 75
2019-04-05 18:00:00 6.8 34 Oeste 54 Oeste 0 -- -- 88
2019-04-05 17:00:00 10.4 21 Oeste 32 Oeste 0 -- -- 58
2019-04-05 16:00:00 7.9 28 Noroeste 47 Noroeste 0.2 -- -- 79
2019-04-05 15:00:00 11.1 24 Oeste 37 Oeste 0 -- -- 52
2019-04-05 14:00:00 8.9 24 Oeste 37 Oeste 0 -- -- 68
2019-04-05 13:00:00 7.5 27 Oeste 42 Oeste 0 -- -- 74
2019-04-05 12:00:00 7.1 22 Oeste 33 Oeste 0 -- -- 83
2019-04-05 11:00:00 5.4 9 Oeste 30 Oeste 0 -- -- 89
2019-04-05 10:00:00 3.9 31 Oeste 50 Oeste 1 -- -- 95
2019-04-05 09:00:00 5.7 18 Oeste 27 Oeste 0.2 -- -- 90
2019-04-05 08:00:00 5.4 13 Oeste 23 Oeste 0 -- -- 93
2019-04-05 07:00:00 6.2 14 Sudoeste 22 Oeste 0.2 -- -- 97
2019-04-05 06:00:00 6.8 17 Sudoeste 30 Sudoeste 1.4 -- -- 96
2019-04-05 05:00:00 7.1 18 Sudoeste 26 Sudoeste 0 -- -- 98
2019-04-05 04:00:00 7 20 Sur 30 Sur 0 -- -- 98
2019-04-05 03:00:00 6.6 21 Sur 38 Sur 0.2 -- -- 97
2019-04-05 02:00:00 6.8 23 Sur 34 Sur 0.2 -- -- 93
2019-04-05 01:00:00 -- -- -- -- -- -- -- -- --
2019-04-05 00:00:00 -- -- -- -- -- -- -- -- --
2019-04-04 23:00:00 -- -- -- -- -- -- -- -- --
2019-04-04 22:00:00 -- -- -- -- -- -- -- -- --
2019-04-04 21:00:00 -- -- -- -- -- -- -- -- --
2019-04-04 20:00:00 -- -- -- -- -- -- -- -- --
2019-04-04 19:00:00 -- -- -- -- -- -- -- -- --
2019-04-04 18:00:00 -- -- -- -- -- -- -- -- --
2019-04-04 17:00:00 -- -- -- -- -- -- -- -- --
2019-04-04 16:00:00 -- -- -- -- -- -- -- -- --
2019-04-04 15:00:00 -- -- -- -- -- -- -- -- --
2019-04-04 14:00:00 -- -- -- -- -- -- -- -- --
2019-04-04 13:00:00 -- -- -- -- -- -- -- -- --
2019-04-04 12:00:00 -- -- -- -- -- -- -- -- --
2019-04-04 11:00:00 -- -- -- -- -- -- -- -- --
2019-04-04 10:00:00 -- -- -- -- -- -- -- -- --
2019-04-04 09:00:00 -- -- -- -- -- -- -- -- --
2019-04-04 08:00:00 -- -- -- -- -- -- -- -- --
2019-04-04 07:00:00 -- -- -- -- -- -- -- -- --
2019-04-04 06:00:00 -- -- -- -- -- -- -- -- --
2019-04-04 05:00:00 -- -- -- -- -- -- -- -- --
2019-04-04 04:00:00 -- -- -- -- -- -- -- -- --
2019-04-04 03:00:00 -- -- -- -- -- -- -- -- --
2019-04-04 02:00:00 -- -- -- -- -- -- -- -- --
2019-04-04 01:00:00 -- -- -- -- -- -- -- -- --
2019-04-04 00:00:00 -- -- -- -- -- -- -- -- --
2019-04-03 23:00:00 -- -- -- -- -- -- -- -- --
2019-04-03 22:00:00 -- -- -- -- -- -- -- -- --
2019-04-03 21:00:00 -- -- -- -- -- -- -- -- --
2019-04-03 20:00:00 -- -- -- -- -- -- -- -- --
2019-04-03 19:00:00 -- -- -- -- -- -- -- -- --
2019-04-03 18:00:00 -- -- -- -- -- -- -- -- --
2019-04-03 17:00:00 -- -- -- -- -- -- -- -- --
2019-04-03 16:00:00 -- -- -- -- -- -- -- -- --
2019-04-03 15:00:00 -- -- -- -- -- -- -- -- --
2019-04-03 14:00:00 -- -- -- -- -- -- -- -- --
2019-04-03 13:00:00 -- -- -- -- -- -- -- -- --
2019-04-03 12:00:00 -- -- -- -- -- -- -- -- --
2019-04-03 11:00:00 -- -- -- -- -- -- -- -- --
2019-04-03 10:00:00 -- -- -- -- -- -- -- -- --
2019-04-03 09:00:00 -- -- -- -- -- -- -- -- --
2019-04-03 08:00:00 -- -- -- -- -- -- -- -- --
2019-04-03 07:00:00 -- -- -- -- -- -- -- -- --
2019-04-03 06:00:00 -- -- -- -- -- -- -- -- --
2019-04-03 05:00:00 -- -- -- -- -- -- -- -- --
2019-04-03 04:00:00 -- -- -- -- -- -- -- -- --
2019-04-03 03:00:00 -- -- -- -- -- -- -- -- --
2019-04-03 02:00:00 -- -- -- -- -- -- -- -- --
2019-04-03 01:00:00 -- -- -- -- -- -- -- -- --
2019-04-03 00:00:00 -- -- -- -- -- -- -- -- --
2019-04-02 23:00:00 -- -- -- -- -- -- -- -- --
2019-04-02 22:00:00 -- -- -- -- -- -- -- -- --
2019-04-02 21:00:00 -- -- -- -- -- -- -- -- --
2019-04-02 20:00:00 -- -- -- -- -- -- -- -- --
2019-04-02 19:00:00 -- -- -- -- -- -- -- -- --
2019-04-02 18:00:00 -- -- -- -- -- -- -- -- --
2019-04-02 17:00:00 -- -- -- -- -- -- -- -- --
2019-04-02 16:00:00 -- -- -- -- -- -- -- -- --
2019-04-02 15:00:00 -- -- -- -- -- -- -- -- --
2019-04-02 14:00:00 -- -- -- -- -- -- -- -- --
2019-04-02 13:00:00 -- -- -- -- -- -- -- -- --
2019-04-02 12:00:00 -- -- -- -- -- -- -- -- --
2019-04-02 11:00:00 -- -- -- -- -- -- -- -- --
2019-04-02 10:00:00 -- -- -- -- -- -- -- -- --
2019-04-02 09:00:00 -- -- -- -- -- -- -- -- --
2019-04-02 08:00:00 -- -- -- -- -- -- -- -- --
2019-04-02 07:00:00 -- -- -- -- -- -- -- -- --
2019-04-02 06:00:00 -- -- -- -- -- -- -- -- --
2019-04-02 05:00:00 -- -- -- -- -- -- -- -- --
2019-04-02 04:00:00 -- -- -- -- -- -- -- -- --
2019-04-02 03:00:00 -- -- -- -- -- -- -- -- --
2019-04-02 02:00:00 -- -- -- -- -- -- -- -- --
2019-04-02 01:00:00 -- -- -- -- -- -- -- -- --
2019-04-02 00:00:00 -- -- -- -- -- -- -- -- --
2019-04-01 23:00:00 -- -- -- -- -- -- -- -- --
2019-04-01 22:00:00 -- -- -- -- -- -- -- -- --
2019-04-01 21:00:00 -- -- -- -- -- -- -- -- --
2019-04-01 20:00:00 -- -- -- -- -- -- -- -- --
2019-04-01 19:00:00 -- -- -- -- -- -- -- -- --
2019-04-01 18:00:00 -- -- -- -- -- -- -- -- --
2019-04-01 17:00:00 -- -- -- -- -- -- -- -- --
2019-04-01 16:00:00 -- -- -- -- -- -- -- -- --
2019-04-01 15:00:00 -- -- -- -- -- -- -- -- --
2019-04-01 14:00:00 -- -- -- -- -- -- -- -- --
2019-04-01 13:00:00 -- -- -- -- -- -- -- -- --
2019-04-01 12:00:00 -- -- -- -- -- -- -- -- --
2019-04-01 11:00:00 -- -- -- -- -- -- -- -- --
2019-04-01 10:00:00 -- -- -- -- -- -- -- -- --
2019-04-01 09:00:00 -- -- -- -- -- -- -- -- --
2019-04-01 08:00:00 -- -- -- -- -- -- -- -- --
2019-04-01 07:00:00 -- -- -- -- -- -- -- -- --
2019-04-01 06:00:00 -- -- -- -- -- -- -- -- --
2019-04-01 05:00:00 -- -- -- -- -- -- -- -- --
2019-04-01 04:00:00 -- -- -- -- -- -- -- -- --
2019-04-01 03:00:00 -- -- -- -- -- -- -- -- --
2019-04-01 02:00:00 -- -- -- -- -- -- -- -- --
2019-04-01 01:00:00 -- -- -- -- -- -- -- -- --
2019-04-01 00:00:00 -- -- -- -- -- -- -- -- --
2019-03-31 23:00:00 -- -- -- -- -- -- -- -- --
2019-03-31 22:00:00 -- -- -- -- -- -- -- -- --
2019-03-31 21:00:00 -- -- -- -- -- -- -- -- --
2019-03-31 20:00:00 -- -- -- -- -- -- -- -- --
2019-03-31 19:00:00 -- -- -- -- -- -- -- -- --
2019-03-31 18:00:00 -- -- -- -- -- -- -- -- --
2019-03-31 17:00:00 -- -- -- -- -- -- -- -- --
2019-03-31 16:00:00 -- -- -- -- -- -- -- -- --
2019-03-31 15:00:00 -- -- -- -- -- -- -- -- --
2019-03-31 14:00:00 -- -- -- -- -- -- -- -- --
2019-03-31 13:00:00 -- -- -- -- -- -- -- -- --
2019-03-31 12:00:00 -- -- -- -- -- -- -- -- --
2019-03-31 11:00:00 -- -- -- -- -- -- -- -- --
2019-03-31 10:00:00 -- -- -- -- -- -- -- -- --
2019-03-31 09:00:00 -- -- -- -- -- -- -- -- --
2019-03-31 08:00:00 -- -- -- -- -- -- -- -- --
2019-03-31 07:00:00 -- -- -- -- -- -- -- -- --
2019-03-31 06:00:00 -- -- -- -- -- -- -- -- --
2019-03-31 05:00:00 -- -- -- -- -- -- -- -- --
2019-03-31 03:00:00 -- -- -- -- -- -- -- -- --
2019-03-31 01:00:00 -- -- -- -- -- -- -- -- --
2019-03-31 00:00:00 -- -- -- -- -- -- -- -- --
2019-03-30 23:00:00 -- -- -- -- -- -- -- -- --
2019-03-30 22:00:00 -- -- -- -- -- -- -- -- --
2019-03-30 21:00:00 -- -- -- -- -- -- -- -- --
2019-03-30 20:00:00 -- -- -- -- -- -- -- -- --
2019-03-30 19:00:00 17.8 9 Nordeste 17 Este 0 -- -- 32
2019-03-30 18:00:00 19.2 11 Este 21 Nordeste 0 -- -- 29
2019-03-30 17:00:00 20.7 13 Este 30 Nordeste 0 -- -- 26
2019-03-30 16:00:00 20.7 17 Nordeste 40 Nordeste 0 -- -- 26
2019-03-30 15:00:00 20.2 15 Este 28 Este 0 -- -- 31
2019-03-30 14:00:00 19.5 13 Este 31 Este 0 -- -- 33
2019-03-30 13:00:00 18.6 17 Este 30 Nordeste 0 -- -- 37
2019-03-30 12:00:00 16.9 18 Este 32 Este 0 -- -- 41
2019-03-30 11:00:00 15.3 21 Este 33 Este 0 -- -- 43
2019-03-30 10:00:00 13 22 Este 34 Este 0 -- -- 49
2019-03-30 09:00:00 10.2 23 Este 33 Este 0 -- -- 56
2019-03-30 08:00:00 8 23 Este 31 Este 0 -- -- 61
2019-03-30 07:00:00 8 19 Este 25 Este 0 -- -- 57
2019-03-30 06:00:00 9.2 17 Este 29 Este 0 -- -- 52
2019-03-30 05:00:00 10.3 15 Este 34 Este 0 -- -- 47
2019-03-30 04:00:00 10.9 21 Este 34 Este 0 -- -- 44
2019-03-30 03:00:00 10.9 20 Este 29 Este 0 -- -- 41
2019-03-30 02:00:00 10.3 18 Este 22 Nordeste 0 -- -- 39
2019-03-30 01:00:00 10.2 9 Sudeste 17 Nordeste 0 -- -- 42
2019-03-30 00:00:00 11.7 15 Nordeste 18 Nordeste 0 -- -- 36
2019-03-29 23:00:00 11.7 16 Nordeste 19 Nordeste 0 -- -- 32
2019-03-29 22:00:00 14.8 8 Este 11 Este 0 -- -- 25
2019-03-29 21:00:00 15.5 7 Sudeste 10 Este 0 -- -- 24
2019-03-29 20:00:00 16.3 5 Este 17 Sudeste 0 -- -- 25
2019-03-29 19:00:00 18.6 12 Sudeste 23 Sudeste 0 -- -- 22
2019-03-29 18:00:00 19.6 10 Este 21 Sudeste 0 -- -- 21
2019-03-29 17:00:00 20.2 10 Sudeste 32 Sudeste 0 -- -- 20
2019-03-29 16:00:00 20.5 19 Sudeste 35 Sudeste 0 -- -- 19
2019-03-29 15:00:00 19.6 19 Sudeste 33 Sudeste 0 -- -- 22
2019-03-29 14:00:00 19 14 Sudeste 31 Este 0 -- -- 25
2019-03-29 13:00:00 18 14 Nordeste 28 Este 0 -- -- 28
2019-03-29 12:00:00 16.8 14 Este 30 Este 0 -- -- 31
2019-03-29 11:00:00 15.9 11 Este 25 Este 0 -- -- 33
2019-03-29 10:00:00 14.7 14 Este 29 Este 0 -- -- 34
2019-03-29 09:00:00 11.9 13 Sudeste 23 Sudeste 0 -- -- 39
2019-03-29 08:00:00 9.3 13 Sudeste 20 Este 0 -- -- 43
2019-03-29 07:00:00 7.4 11 Este 18 Este 0 -- -- 48
2019-03-29 06:00:00 8.3 14 Este 15 Este 0 -- -- 43
2019-03-29 05:00:00 10.5 9 Este 20 Sudeste 0 -- -- 37
2019-03-29 04:00:00 11.5 10 Este 23 Este 0 -- -- 35
2019-03-29 03:00:00 10.2 17 Este 23 Este 0 -- -- 37
2019-03-29 02:00:00 9.8 16 Nordeste 19 Nordeste 0 -- -- 38
2019-03-29 01:00:00 12.9 9 Este 23 Este 0 -- -- 33
2019-03-29 00:00:00 12.8 18 Este 24 Este 0 -- -- 32
2019-03-28 23:00:00 14.1 13 Este 22 Este 0 -- -- 29
2019-03-28 22:00:00 13.8 16 Este 19 Este 0 -- -- 31
2019-03-28 21:00:00 13.7 16 Este 18 Nordeste 0 -- -- 32
2019-03-28 20:00:00 15.5 14 Nordeste 18 Nordeste 0 -- -- 29
2019-03-28 19:00:00 19.1 13 Nordeste 25 Este 0 -- -- 24
2019-03-28 18:00:00 20.9 12 Este 29 Este 0 -- -- 21
2019-03-28 17:00:00 21.4 13 Nordeste 29 Nordeste 0 -- -- 22
2019-03-28 16:00:00 21.6 13 Este 28 Este 0 -- -- 23
2019-03-28 15:00:00 20.9 11 Este 30 Este 0 -- -- 24
2019-03-28 14:00:00 20 18 Sudeste 33 Este 0 -- -- 22
2019-03-28 13:00:00 19.2 14 Este 30 Este 0 -- -- 26
2019-03-28 12:00:00 17.6 19 Sudeste 33 Este 0 -- -- 26
2019-03-28 11:00:00 15.7 13 Este 22 Este 0 -- -- 33
2019-03-28 10:00:00 13.1 16 Este 26 Este 0 -- -- 39
2019-03-28 09:00:00 10.5 17 Este 29 Este 0 -- -- 45
2019-03-28 08:00:00 6.5 14 Nordeste 20 Este 0 -- -- 57
2019-03-28 07:00:00 6.3 14 Este 18 Nordeste 0 -- -- 55
2019-03-28 06:00:00 7.3 15 Este 19 Este 0 -- -- 50
2019-03-28 05:00:00 8.8 8 Sur 21 Nordeste 0 -- -- 46
2019-03-28 04:00:00 9.6 16 Este 20 Este 0 -- -- 45
2019-03-28 03:00:00 9.7 14 Nordeste 19 Este 0 -- -- 43
2019-03-28 02:00:00 10.4 15 Este 19 Este 0 -- -- 41
2019-03-28 01:00:00 11.9 8 Este 15 Este 0 -- -- 37
2019-03-28 00:00:00 12.3 10 Este 20 Este 0 -- -- 37
2019-03-27 23:00:00 11.7 16 Este 20 Nordeste 0 -- -- 41
2019-03-27 22:00:00 12.9 16 Nordeste 20 Nordeste 0 -- -- 37
2019-03-27 21:00:00 13.6 17 Nordeste 20 Nordeste 0 -- -- 35
2019-03-27 20:00:00 14.9 11 Nordeste 16 Este 0 -- -- 34
2019-03-27 19:00:00 18.2 10 Este 25 Nordeste 0 -- -- 28
2019-03-27 18:00:00 19.5 15 Este 30 Este 0 -- -- 26
2019-03-27 17:00:00 20 20 Nordeste 32 Este 0 -- -- 24
2019-03-27 16:00:00 20.4 23 Nordeste 33 Nordeste 0 -- -- 23
2019-03-27 15:00:00 19.8 19 Este 36 Este 0 -- -- 22
2019-03-27 14:00:00 19.4 17 Este 35 Este 0 -- -- 24
2019-03-27 13:00:00 18.6 17 Este 36 Este 0 -- -- 27
2019-03-27 12:00:00 17.1 22 Este 43 Nordeste 0 -- -- 32
2019-03-27 11:00:00 15.4 17 Este 30 Este 0 -- -- 41
2019-03-27 10:00:00 12.6 21 Este 44 Nordeste 0 -- -- 49
2019-03-27 09:00:00 10.1 36 Este 51 Este 0 -- -- 58
2019-03-27 08:00:00 8.9 30 Nordeste 50 Este 0 -- -- 61
2019-03-27 07:00:00 8.7 31 Este 49 Este 0 -- -- 62
2019-03-27 06:00:00 9.9 31 Nordeste 45 Este 0 -- -- 54
2019-03-27 05:00:00 10.5 24 Este 43 Este 0 -- -- 48
2019-03-27 04:00:00 11.4 30 Este 41 Este 0 -- -- 45
2019-03-27 03:00:00 11.1 22 Este 30 Este 0 -- -- 49
2019-03-27 02:00:00 12.1 22 Este 35 Este 0 -- -- 47
2019-03-27 01:00:00 13.4 23 Este 32 Nordeste 0 -- -- 42
2019-03-27 00:00:00 14.4 24 Este 32 Este 0 -- -- 39